Time;durP1;ratioP1;P1;durP2;ratioP2;P2;SDS_P1;SDS_P2;PMS_P1;PMS_P2;Temp;Humidity;BMP_temperature;BMP_pressure;BME280_temperature;BME280_humidity;BME280_pressure;Samples;Min_cycle;Max_cycle;Signal;HPM_P1;HPM_P2
2021/08/06 00:02:05;;;;;;;10.23;5.70;;;;;;;32.85;22.88;98141.41;5073416;28;20024;-78
2021/08/06 00:04:30;;;;;;;8.98;5.43;;;;;;;33.18;23.39;98190.13;5073618;28;20028;-77
2021/08/06 00:06:56;;;;;;;11.00;5.30;;;;;;;33.20;23.09;98197.97;5073680;28;20020;-79
2021/08/06 00:09:21;;;;;;;16.85;5.63;;;;;;;33.21;22.97;98188.63;5072322;28;20115;-79
2021/08/06 00:11:47;;;;;;;9.45;4.75;;;;;;;33.23;22.83;98191.00;5073483;28;20028;-78
2021/08/06 00:14:12;;;;;;;12.43;5.25;;;;;;;33.26;23.13;98193.78;5073591;28;20598;-78
2021/08/06 00:16:37;;;;;;;9.35;4.90;;;;;;;32.86;23.04;98131.25;5073408;28;20028;-78
2021/08/06 00:19:03;;;;;;;11.43;5.13;;;;;;;33.30;22.67;98197.44;5073453;28;20104;-78
2021/08/06 00:21:29;;;;;;;14.93;5.78;;;;;;;33.31;22.55;98188.06;5073506;28;20107;-78
2021/08/06 00:23:54;;;;;;;10.82;5.35;;;;;;;33.32;22.62;98186.13;5071887;28;20028;-78
2021/08/06 00:26:20;;;;;;;12.18;5.30;;;;;;;33.09;22.63;98142.25;5073117;28;20052;-78
2021/08/06 00:28:45;;;;;;;9.57;5.07;;;;;;;33.09;22.53;98158.69;5073305;28;20039;-78
2021/08/06 00:31:11;;;;;;;13.35;5.72;;;;;;;33.30;22.55;98172.81;5073151;28;20028;-79
2021/08/06 00:33:36;;;;;;;13.90;4.78;;;;;;;32.88;22.35;98109.03;5073093;28;20047;-77
2021/08/06 00:36:02;;;;;;;10.90;5.15;;;;;;;32.81;22.65;98104.22;5072925;28;20497;-76
2021/08/06 00:38:28;;;;;;;9.90;5.05;;;;;;;33.14;22.74;98169.31;5071741;28;20024;-79
2021/08/06 00:40:53;;;;;;;9.02;5.32;;;;;;;33.04;22.83;98150.75;5072966;28;20032;-77
2021/08/06 00:43:19;;;;;;;12.25;5.35;;;;;;;33.14;22.99;98169.31;5072681;28;20103;-78
2021/08/06 00:45:45;;;;;;;11.27;4.63;;;;;;;33.13;22.76;98179.47;5072910;28;20484;-78
2021/08/06 00:48:10;;;;;;;9.32;5.25;;;;;;;32.76;22.79;98129.06;5072722;28;20032;-78
2021/08/06 00:50:37;;;;;;;12.45;5.40;;;;;;;33.07;22.82;98188.31;5072803;28;20082;-79
2021/08/06 00:53:03;;;;;;;14.07;5.55;;;;;;;32.51;22.96;98115.63;5072506;28;20089;-77
2021/08/06 00:55:28;;;;;;;14.15;5.13;;;;;;;32.99;23.02;98201.06;5072623;28;20501;-79
2021/08/06 00:57:53;;;;;;;11.48;5.35;;;;;;;32.61;22.86;98141.59;5072610;28;20024;-79
2021/08/06 01:00:19;;;;;;;16.83;5.88;;;;;;;32.89;23.01;98187.16;5072322;28;20032;-79
2021/08/06 01:02:57;;;;;;;15.63;6.40;;;;;;;32.95;23.08;98189.25;5072374;28;20467;-78
2021/08/06 01:05:28;;;;;;;9.18;5.55;;;;;;;32.84;23.13;98178.09;5072411;28;20417;-78
2021/08/06 01:08:11;;;;;;;11.80;5.53;;;;;;;32.89;23.58;98178.97;5072408;28;20099;-78
2021/08/06 01:10:42;;;;;;;15.25;6.45;;;;;;;32.87;23.41;98178.53;5072375;28;20025;-75
2021/08/06 01:13:10;;;;;;;13.18;5.75;;;;;;;32.89;23.55;98185.22;5071030;28;20115;-78
2021/08/06 01:15:37;;;;;;;10.73;5.50;;;;;;;32.89;23.75;98201.63;5072219;28;20091;-77
2021/08/06 01:18:05;;;;;;;13.52;5.72;;;;;;;32.89;24.19;98209.03;5072224;28;20095;-78
2021/08/06 01:20:37;;;;;;;13.20;5.85;;;;;;;32.79;24.44;98211.19;5072414;28;20020;-77
2021/08/06 01:23:21;;;;;;;11.85;6.13;;;;;;;32.75;25.39;98193.09;5072169;28;20051;-78
2021/08/06 01:25:54;;;;;;;17.05;6.47;;;;;;;32.53;25.46;98181.66;5072088;28;20127;-79
2021/08/06 01:28:23;;;;;;;17.98;6.78;;;;;;;31.98;25.82;98119.84;5072155;28;20033;-79
2021/08/06 01:30:49;;;;;;;15.52;6.30;;;;;;;32.33;26.30;98185.47;5071896;28;20028;-77
2021/08/06 01:33:16;;;;;;;14.13;6.95;;;;;;;32.27;26.44;98192.34;5071748;28;20031;-78
2021/08/06 01:35:42;;;;;;;14.93;6.30;;;;;;;32.29;26.43;98194.75;5071665;28;20013;-78
2021/08/06 01:38:09;;;;;;;14.88;6.22;;;;;;;32.26;26.71;98185.31;5071847;28;20505;-78
2021/08/06 01:41:14;;;;;;;18.65;6.68;;;;;;;32.23;26.57;98180.53;5070590;28;20051;-77
2021/08/06 01:44:11;;;;;;;14.73;6.72;;;;;;;32.18;26.61;98170.66;5071717;28;20040;-78
2021/08/06 01:46:42;;;;;;;15.65;6.68;;;;;;;32.13;26.68;98173.66;5071614;28;20025;-78
2021/08/06 01:49:21;;;;;;;13.90;5.95;;;;;;;31.86;26.53;98118.00;5070133;28;20040;-78
2021/08/06 01:51:51;;;;;;;12.80;6.25;;;;;;;32.14;25.90;98185.38;5071528;28;20028;-77
2021/08/06 01:54:19;;;;;;;13.48;6.07;;;;;;;31.63;25.87;98083.44;5071498;28;20024;-78
2021/08/06 01:56:45;;;;;;;15.90;6.50;;;;;;;31.58;26.22;98114.53;5071640;28;20086;-78
2021/08/06 01:59:11;;;;;;;12.43;5.68;;;;;;;31.81;26.20;98169.31;5071516;28;20032;-78
2021/08/06 02:01:38;;;;;;;11.98;5.47;;;;;;;31.48;26.08;98131.41;5071519;28;20103;-78
2021/08/06 02:04:03;;;;;;;12.40;5.60;;;;;;;31.76;26.09;98189.47;5070173;28;20036;-78
2021/08/06 02:06:29;;;;;;;13.98;5.60;;;;;;;31.83;26.30;98192.38;5070931;28;20024;-78
2021/08/06 02:08:54;;;;;;;10.45;5.47;;;;;;;31.37;26.73;98117.50;5071629;28;20116;-78
2021/08/06 02:11:20;;;;;;;11.52;5.82;;;;;;;31.14;27.09;98111.75;5071509;28;20113;-78
2021/08/06 02:13:50;;;;;;;12.38;5.88;;;;;;;31.35;27.61;98147.06;5071294;28;20025;-78
2021/08/06 02:16:16;;;;;;;10.45;6.40;;;;;;;31.38;27.73;98178.28;5071059;28;20024;-78
2021/08/06 02:18:47;;;;;;;10.43;6.20;;;;;;;31.31;28.44;98178.88;5071359;28;20089;-78
2021/08/06 02:21:14;;;;;;;;;;;;;;;31.06;28.33;98178.13;5071718;28;20052;-78
2021/08/06 02:23:44;;;;;;;10.88;6.15;;;;;;;30.86;28.66;98144.47;5071481;28;20402;-78
2021/08/06 02:26:11;;;;;;;11.77;6.80;;;;;;;31.13;28.61;98191.97;5071063;28;20056;-78
2021/08/06 02:28:39;;;;;;;14.57;6.55;;;;;;;30.66;28.73;98110.00;5070018;28;20024;-78
2021/08/06 02:31:05;;;;;;;10.98;6.30;;;;;;;31.15;28.72;98186.19;5071009;28;20111;-79
2021/08/06 02:33:32;;;;;;;11.90;6.22;;;;;;;31.16;29.05;98190.50;5071198;28;20021;-79
2021/08/06 02:35:57;;;;;;;13.32;7.20;;;;;;;31.16;29.27;98193.25;5071168;28;20035;-79
2021/08/06 02:38:23;;;;;;;11.95;6.18;;;;;;;31.03;29.20;98183.47;5071200;28;20024;-79
2021/08/06 02:40:51;;;;;;;17.90;6.80;;;;;;;31.13;29.39;98202.06;5071098;28;20422;-77
2021/08/06 02:43:17;;;;;;;13.95;6.88;;;;;;;31.11;29.34;98196.19;5071031;28;20482;-78
2021/08/06 02:45:45;;;;;;;10.50;6.57;;;;;;;31.13;29.40;98199.34;5071247;28;20036;-77
2021/08/06 02:48:10;;;;;;;13.48;6.65;;;;;;;31.12;29.75;98198.56;5071008;28;20105;-78
2021/08/06 02:50:36;;;;;;;14.95;6.57;;;;;;;30.79;29.61;98133.34;5070755;28;20466;-78
2021/08/06 02:53:01;;;;;;;13.35;7.47;;;;;;;31.16;29.84;98194.03;5070969;28;20108;-78
2021/08/06 02:55:27;;;;;;;16.02;7.22;;;;;;;30.92;29.58;98166.81;5071162;28;20032;-77
2021/08/06 02:57:52;;;;;;;17.17;7.57;;;;;;;31.13;29.63;98202.06;5071135;28;20024;-77
2021/08/06 03:00:17;;;;;;;18.23;8.10;;;;;;;31.11;29.74;98199.69;5070647;28;20112;-78
2021/08/06 03:02:43;;;;;;;14.18;7.18;;;;;;;31.07;30.05;98192.56;5070690;28;20031;-78
2021/08/06 03:05:09;;;;;;;12.10;7.20;;;;;;;30.61;29.81;98132.84;5070394;28;20411;-78
2021/08/06 03:07:34;;;;;;;13.60;7.50;;;;;;;30.68;30.07;98145.88;5069350;28;20032;-78
2021/08/06 03:09:59;;;;;;;10.27;6.78;;;;;;;30.93;30.47;98188.28;5070773;28;20086;-78
2021/08/06 03:12:25;;;;;;;16.60;7.82;;;;;;;30.72;30.59;98168.56;5070906;28;20524;-79
2021/08/06 03:14:50;;;;;;;14.23;7.38;;;;;;;30.99;30.15;98216.09;5069314;28;20023;-78
2021/08/06 03:17:16;;;;;;;13.93;7.28;;;;;;;30.85;30.31;98213.75;5072930;28;20386;-78
2021/08/06 03:19:41;;;;;;;13.50;6.50;;;;;;;30.87;30.16;98210.66;5074135;28;20096;-78
2021/08/06 03:22:07;;;;;;;13.55;6.53;;;;;;;30.86;30.41;98218.06;5074182;28;20032;-78
2021/08/06 03:24:32;;;;;;;13.40;6.95;;;;;;;30.87;30.16;98205.22;5074199;28;20045;-75
2021/08/06 03:26:57;;;;;;;15.80;7.45;;;;;;;30.45;30.56;98144.72;5074280;28;20499;-75
2021/08/06 03:29:23;;;;;;;13.90;7.43;;;;;;;30.47;30.45;98143.28;5074249;28;20082;-75
2021/08/06 03:31:48;;;;;;;14.73;6.90;;;;;;;30.87;30.35;98216.91;5074333;28;20029;-75
2021/08/06 03:34:14;;;;;;;13.95;7.72;;;;;;;30.81;30.27;98206.59;5074200;28;20013;-75
2021/08/06 03:36:39;;;;;;;17.10;7.07;;;;;;;30.83;30.72;98218.75;5074362;28;20030;-74
2021/08/06 03:39:05;;;;;;;17.20;7.47;;;;;;;30.85;30.71;98210.22;5072813;28;20431;-74
2021/08/06 03:41:31;;;;;;;12.32;7.10;;;;;;;30.67;30.36;98187.88;5073868;28;20028;-75
2021/08/06 03:43:56;;;;;;;14.05;7.80;;;;;;;30.64;30.36;98185.84;5073922;28;20048;-75
2021/08/06 03:46:22;;;;;;;14.18;7.40;;;;;;;30.38;30.52;98158.13;5074085;28;20032;-75
2021/08/06 03:48:47;;;;;;;15.23;7.30;;;;;;;30.20;30.71;98163.81;5073898;28;20028;-75
2021/08/06 03:51:13;;;;;;;16.52;7.05;;;;;;;29.66;30.99;98103.28;5073934;28;20028;-75
2021/08/06 03:53:38;;;;;;;17.25;7.78;;;;;;;30.34;30.91;98215.22;5073912;28;20424;-75
2021/08/06 03:56:04;;;;;;;17.05;7.68;;;;;;;30.13;31.26;98181.84;5073606;28;20025;-75
2021/08/06 03:58:29;;;;;;;15.68;7.40;;;;;;;30.27;31.19;98198.63;5073752;28;20064;-75
2021/08/06 04:00:55;;;;;;;16.65;7.82;;;;;;;30.22;30.89;98201.59;5073642;28;20024;-75
2021/08/06 04:03:20;;;;;;;15.77;7.80;;;;;;;30.03;31.10;98199.41;5072219;28;20031;-75
2021/08/06 04:05:46;;;;;;;15.23;7.43;;;;;;;29.92;31.63;98211.84;5073620;28;20031;-74
2021/08/06 04:08:12;;;;;;;16.88;7.38;;;;;;;29.87;31.81;98218.31;5073653;28;20029;-75
2021/08/06 04:10:37;;;;;;;14.38;7.45;;;;;;;29.78;31.54;98190.41;5073440;28;20206;-75
2021/08/06 04:13:03;;;;;;;13.20;7.13;;;;;;;29.70;31.78;98173.00;5073564;28;20025;-75
2021/08/06 04:15:28;;;;;;;17.33;7.28;;;;;;;29.96;31.38;98208.13;5073449;28;20046;-77
2021/08/06 04:17:54;;;;;;;13.43;7.20;;;;;;;29.88;31.68;98209.00;5073409;28;20029;-74
2021/08/06 04:20:20;;;;;;;11.90;7.05;;;;;;;29.89;31.84;98201.63;5073324;28;20050;-76
2021/08/06 04:22:46;;;;;;;19.17;7.72;;;;;;;29.93;31.49;98203.34;5073220;28;20033;-77
2021/08/06 04:25:12;;;;;;;13.30;7.03;;;;;;;29.94;31.45;98201.41;5073212;28;20132;-75
2021/08/06 04:27:38;;;;;;;16.83;7.60;;;;;;;30.13;31.91;98226.19;5071467;28;20390;-76
2021/08/06 04:30:06;;;;;;;21.02;7.28;;;;;;;30.10;31.60;98216.00;5072867;28;20032;-75
2021/08/06 04:32:31;;;;;;;18.40;8.02;;;;;;;30.20;31.84;98217.47;5073104;28;20082;-76
2021/08/06 04:34:57;;;;;;;13.77;7.32;;;;;;;29.97;31.61;98170.81;5072988;28;20032;-76
2021/08/06 04:37:22;;;;;;;14.73;7.45;;;;;;;30.22;31.62;98204.31;5073072;28;20028;-75
2021/08/06 04:39:48;;;;;;;16.63;7.70;;;;;;;29.94;31.90;98150.50;5073002;28;20024;-76
2021/08/06 04:42:14;;;;;;;16.80;7.72;;;;;;;30.33;31.82;98198.06;5072843;28;20027;-75
2021/08/06 04:44:40;;;;;;;18.33;8.63;;;;;;;30.34;31.43;98190.69;5072814;28;20035;-75
2021/08/06 04:47:06;;;;;;;16.52;8.05;;;;;;;29.96;31.36;98125.66;5072797;28;20449;-76
2021/08/06 04:49:32;;;;;;;15.43;8.68;;;;;;;30.46;31.66;98192.63;5073028;28;20035;-76
2021/08/06 04:51:58;;;;;;;18.23;8.57;;;;;;;30.51;31.43;98214.22;5072826;28;20511;-75
2021/08/06 04:54:23;;;;;;;19.25;8.70;;;;;;;30.54;31.85;98197.97;5072449;28;20024;-75
2021/08/06 04:56:48;;;;;;;16.02;8.57;;;;;;;30.39;31.39;98165.16;5071607;28;20032;-75
2021/08/06 04:59:14;;;;;;;17.63;9.65;;;;;;;30.54;31.42;98183.56;5052278;28;20624;-74
2021/08/06 05:01:40;;;;;;;20.88;9.07;;;;;;;30.27;31.62;98161.31;5052942;28;20033;-75
2021/08/06 05:04:05;;;;;;;19.58;8.90;;;;;;;30.67;31.41;98242.38;5063471;28;20048;-75
2021/08/06 05:06:31;;;;;;;18.85;8.88;;;;;;;30.60;31.57;98242.94;5052193;28;20505;-75
2021/08/06 05:08:58;;;;;;;20.15;8.25;;;;;;;30.40;31.88;98199.44;5052277;28;20509;-76
2021/08/06 05:11:23;;;;;;;20.88;8.45;;;;;;;30.49;32.13;98213.75;5053366;28;20087;-74
2021/08/06 05:13:49;;;;;;;13.88;7.88;;;;;;;30.39;32.05;98187.75;5052080;28;20460;-73
2021/08/06 05:16:14;;;;;;;16.77;8.18;;;;;;;30.65;32.15;98215.47;5055983;28;20029;-74
2021/08/06 05:18:40;;;;;;;19.52;9.13;;;;;;;30.71;31.94;98207.84;5051880;28;20067;-76
2021/08/06 05:21:05;;;;;;;16.42;7.25;;;;;;;30.74;31.60;98211.84;5051877;28;20033;-73
2021/08/06 05:23:30;;;;;;;17.42;7.93;;;;;;;30.69;31.68;98206.63;5052833;28;20025;-80
2021/08/06 05:25:56;;;;;;;18.58;8.05;;;;;;;30.51;31.73;98181.53;5051928;28;20055;-79
2021/08/06 05:28:21;;;;;;;16.85;7.25;;;;;;;30.44;31.93;98165.72;5051915;28;20394;-79
2021/08/06 05:30:47;;;;;;;12.30;7.20;;;;;;;30.87;31.32;98227.81;5051399;28;20512;-79
2021/08/06 05:33:12;;;;;;;17.50;6.93;;;;;;;30.65;31.60;98180.06;5068228;28;20036;-79
2021/08/06 05:35:39;;;;;;;17.70;7.65;;;;;;;30.97;31.29;98219.16;5071779;28;20028;-80
2021/08/06 05:38:05;;;;;;;18.00;7.80;;;;;;;30.58;31.48;98165.41;5063874;28;20029;-81
2021/08/06 05:40:30;;;;;;;15.93;7.68;;;;;;;31.03;30.89;98232.56;5050791;28;20040;-79
2021/08/06 05:42:56;;;;;;;16.38;8.88;;;;;;;30.93;31.24;98210.09;5055427;28;20032;-80
2021/08/06 05:45:22;;;;;;;17.00;8.98;;;;;;;30.97;31.20;98235.53;5051585;28;20024;-80
2021/08/06 05:47:53;;;;;;;16.38;8.30;;;;;;;30.94;31.24;98235.41;5052931;28;20056;-80
2021/08/06 05:50:20;;;;;;;19.08;8.20;;;;;;;30.88;31.59;98236.78;5051528;28;20608;-81
2021/08/06 05:52:46;;;;;;;18.63;9.48;;;;;;;30.69;31.41;98221.03;5056256;28;20037;-82
2021/08/06 05:55:12;;;;;;;14.75;8.13;;;;;;;30.52;31.53;98213.06;5051857;28;20025;-80
2021/08/06 05:57:38;;;;;;;13.40;7.57;;;;;;;30.44;31.82;98208.50;5052273;28;20036;-80
2021/08/06 06:00:05;;;;;;;15.50;7.85;;;;;;;30.83;31.63;98267.78;5051234;28;20043;-81
2021/08/06 06:02:30;;;;;;;16.83;7.80;;;;;;;30.52;31.60;98216.59;5050877;28;20029;-81
2021/08/06 06:04:56;;;;;;;13.40;7.78;;;;;;;30.82;31.56;98266.22;5059318;28;20458;-80
2021/08/06 06:07:21;;;;;;;18.58;7.43;;;;;;;30.89;31.79;98268.34;5070921;28;20101;-79
2021/08/06 06:09:47;;;;;;;19.75;7.60;;;;;;;30.46;31.61;98203.50;5065900;28;20447;-80
2021/08/06 06:12:12;;;;;;;15.10;9.07;;;;;;;31.02;31.48;98263.69;5062942;28;20029;-80
2021/08/06 06:14:38;;;;;;;19.17;8.63;;;;;;;31.11;31.74;98267.06;5051853;28;20017;-80
2021/08/06 06:17:04;;;;;;;15.40;9.65;;;;;;;30.86;31.73;98228.16;5053350;28;20021;-80
2021/08/06 06:19:29;;;;;;;23.45;13.05;;;;;;;30.93;31.89;98226.44;5050786;28;20024;-77
2021/08/06 06:21:54;;;;;;;14.82;9.00;;;;;;;31.24;31.99;98263.22;5049595;28;20031;-80
2021/08/06 06:24:20;;;;;;;14.18;7.90;;;;;;;31.20;31.40;98249.47;5050815;28;20039;-80
2021/08/06 06:26:46;;;;;;;19.80;11.80;;;;;;;31.31;31.61;98257.19;5050902;28;20049;-80
2021/08/06 06:29:12;;;;;;;17.08;9.88;;;;;;;31.31;31.34;98255.25;5061140;28;20413;-80
2021/08/06 06:31:37;;;;;;;15.77;7.70;;;;;;;31.25;31.39;98256.63;5050580;28;20028;-79
2021/08/06 06:34:02;;;;;;;17.65;8.40;;;;;;;31.39;31.41;98262.50;5049649;28;20021;-79
2021/08/06 06:36:28;;;;;;;16.17;10.00;;;;;;;31.38;31.47;98255.47;5050846;28;20108;-79
2021/08/06 06:38:54;;;;;;;14.50;8.85;;;;;;;31.40;31.32;98247.72;5050890;28;20354;-79
2021/08/06 06:41:19;;;;;;;18.25;10.15;;;;;;;31.47;31.25;98258.03;5050874;28;20025;-79
2021/08/06 06:43:44;;;;;;;17.27;9.70;;;;;;;31.52;31.37;98261.31;5050653;28;20094;-80
2021/08/06 06:46:10;;;;;;;20.92;11.00;;;;;;;31.25;30.94;98193.91;5050718;28;20045;-79
2021/08/06 06:48:36;;;;;;;17.35;10.02;;;;;;;31.14;31.37;98152.66;5056122;28;20024;-79
2021/08/06 06:51:01;;;;;;;18.48;8.48;;;;;;;31.46;30.65;98190.97;5067833;28;20020;-79
2021/08/06 06:53:26;;;;;;;17.08;10.00;;;;;;;31.80;30.60;98227.78;5071921;28;20497;-79
2021/08/06 06:55:52;;;;;;;25.38;11.88;;;;;;;32.02;30.47;98248.28;5060500;28;20112;-78
2021/08/06 06:58:18;;;;;;;18.65;9.80;;;;;;;32.05;30.29;98251.09;5061042;28;20029;-78
2021/08/06 07:00:44;;;;;;;16.38;11.50;;;;;;;32.13;30.31;98263.78;5057113;28;20013;-78
2021/08/06 07:03:10;;;;;;;17.23;9.30;;;;;;;31.87;30.36;98219.78;5071551;28;20095;-78
2021/08/06 07:05:35;;;;;;;18.90;9.65;;;;;;;32.08;30.36;98261.31;5064348;28;20493;-77
2021/08/06 07:08:02;;;;;;;14.10;7.68;;;;;;;31.67;30.43;98196.22;5065263;28;20109;-79
2021/08/06 07:10:28;;;;;;;15.50;8.95;;;;;;;32.15;30.35;98271.63;5068164;28;20449;-79
2021/08/06 07:12:55;;;;;;;13.95;8.07;;;;;;;32.11;30.21;98262.56;5070029;28;20024;-78
2021/08/06 07:15:21;;;;;;;20.30;8.85;;;;;;;31.97;30.36;98248.53;5063785;28;20024;-78
2021/08/06 07:17:46;;;;;;;19.88;9.50;;;;;;;32.14;30.13;98265.38;5068628;28;20020;-79
2021/08/06 07:20:14;;;;;;;18.17;8.75;;;;;;;32.31;30.05;98275.19;5070284;28;20493;-78
2021/08/06 07:22:40;;;;;;;14.68;8.65;;;;;;;32.35;29.88;98278.81;5073144;28;20047;-79
2021/08/06 07:25:07;;;;;;;16.10;7.70;;;;;;;32.44;29.62;98276.69;5073550;28;20429;-78
2021/08/06 07:27:32;;;;;;;18.42;7.10;;;;;;;32.49;29.32;98270.16;5073554;28;20098;-78
2021/08/06 07:29:58;;;;;;;11.50;6.75;;;;;;;32.26;29.09;98225.50;5073157;28;20201;-78
2021/08/06 07:32:23;;;;;;;16.90;7.15;;;;;;;32.54;28.82;98269.88;5069549;28;20105;-81
2021/08/06 07:34:49;;;;;;;13.07;6.63;;;;;;;32.01;28.66;98167.50;5073178;28;20029;-81
2021/08/06 07:37:14;;;;;;;12.40;6.65;;;;;;;32.25;28.87;98210.25;5072081;28;20028;-79
2021/08/06 07:39:39;;;;;;;11.43;6.05;;;;;;;32.54;28.32;98231.63;5065998;28;20032;-80
2021/08/06 07:42:06;;;;;;;13.32;7.43;;;;;;;32.75;28.44;98248.56;5057231;28;20036;-78
2021/08/06 07:44:31;;;;;;;12.93;5.40;;;;;;;32.58;28.26;98220.78;5070816;28;20032;-79
2021/08/06 07:46:57;;;;;;;10.25;5.25;;;;;;;32.85;27.89;98239.81;5071984;28;20039;-80
2021/08/06 07:49:22;;;;;;;9.52;5.40;;;;;;;32.89;27.64;98228.19;5066514;28;20017;-77
2021/08/06 07:51:47;;;;;;;11.00;5.85;;;;;;;33.09;27.77;98260.66;5062973;28;20485;-80
2021/08/06 07:54:13;;;;;;;11.68;6.25;;;;;;;32.89;27.54;98207.09;5069800;28;20025;-78
2021/08/06 07:56:38;;;;;;;12.00;5.75;;;;;;;33.32;27.15;98246.31;5070608;28;20038;-79
2021/08/06 07:59:04;;;;;;;16.92;6.65;;;;;;;33.08;27.08;98206.31;5066505;28;20035;-79
2021/08/06 08:01:30;;;;;;;13.65;6.03;;;;;;;33.50;27.05;98254.91;5068773;28;20020;-79
2021/08/06 08:03:55;;;;;;;11.60;5.53;;;;;;;33.30;27.04;98224.78;5071182;28;20467;-80
2021/08/06 08:06:21;;;;;;;13.18;5.18;;;;;;;33.56;27.09;98248.00;5069403;28;20480;-78
2021/08/06 08:08:46;;;;;;;11.05;5.35;;;;;;;33.43;26.92;98214.47;5072834;28;20501;-78
2021/08/06 08:11:12;;;;;;;10.07;5.43;;;;;;;33.72;27.08;98246.75;5071870;28;20101;-79
2021/08/06 08:13:37;;;;;;;10.02;5.13;;;;;;;33.57;26.71;98214.00;5071078;28;20056;-79
2021/08/06 08:16:03;;;;;;;10.15;5.32;;;;;;;33.84;26.84;98248.56;5068496;28;20024;-79
2021/08/06 08:18:29;;;;;;;11.20;5.65;;;;;;;33.92;26.89;98253.00;5069482;28;20459;-79
2021/08/06 08:20:55;;;;;;;10.25;5.03;;;;;;;33.96;26.43;98244.84;5068062;28;20024;-79
2021/08/06 08:23:21;;;;;;;14.73;7.80;;;;;;;33.95;26.37;98241.31;5067282;28;20079;-74
2021/08/06 08:25:49;;;;;;;11.48;7.68;;;;;;;34.09;26.51;98238.03;5071734;28;20044;-73
2021/08/06 08:28:16;;;;;;;19.52;10.43;;;;;;;34.02;26.28;98218.75;5069603;28;20036;-76
2021/08/06 08:30:42;;;;;;;12.98;6.93;;;;;;;34.32;26.57;98240.81;5070274;28;20524;-76
2021/08/06 08:33:07;;;;;;;12.75;6.68;;;;;;;34.38;26.19;98231.94;5067720;28;20040;-76
2021/08/06 08:35:34;;;;;;;15.50;7.35;;;;;;;34.10;25.98;98185.63;5068991;28;20121;-74
2021/08/06 08:41:21;;;;;;;10.27;5.93;;;;;;;34.26;25.77;98210.19;5065996;28;20463;-75
2021/08/06 08:43:47;;;;;;;16.52;6.78;;;;;;;34.42;25.91;98230.03;5072289;28;20100;-74
2021/08/06 08:46:13;;;;;;;17.17;5.90;;;;;;;34.48;26.47;98236.00;5069250;28;20044;-74
2021/08/06 08:48:38;;;;;;;11.25;5.30;;;;;;;34.22;26.28;98176.44;5052796;28;20047;-74
2021/08/06 08:51:05;;;;;;;15.13;5.55;;;;;;;34.57;25.97;98227.50;5060876;28;20111;-75
2021/08/06 08:53:30;;;;;;;12.93;5.70;;;;;;;34.59;25.85;98241.63;5069363;28;20021;-74
2021/08/06 08:55:57;;;;;;;13.40;5.53;;;;;;;34.64;26.16;98239.38;5071660;28;20028;-72
2021/08/06 08:58:23;;;;;;;13.75;5.90;;;;;;;34.72;25.54;98248.50;5071880;28;20039;-76
2021/08/06 09:00:49;;;;;;;11.88;5.63;;;;;;;34.49;25.56;98199.19;5069856;28;20025;-75
2021/08/06 09:03:39;;;;;;;17.00;6.30;;;;;;;34.32;25.78;98169.56;5068184;28;20135;-76
2021/08/06 09:06:05;;;;;;;14.48;6.03;;;;;;;34.75;25.74;98228.56;5066833;28;20025;-73
2021/08/06 09:08:31;;;;;;;14.98;7.35;;;;;;;34.30;25.37;98149.94;5066242;28;20039;-73
2021/08/06 09:10:56;;;;;;;24.13;7.00;;;;;;;34.57;25.14;98195.41;5065543;28;20103;-76
2021/08/06 09:13:24;;;;;;;15.38;7.10;;;;;;;34.82;24.95;98198.53;5066856;28;20107;-75
2021/08/06 09:15:54;;;;;;;13.63;7.72;;;;;;;35.21;24.70;98222.97;5068691;28;20415;-76
2021/08/06 09:18:30;;;;;;;14.00;7.13;;;;;;;35.44;24.56;98225.63;5067105;28;20028;-74
2021/08/06 09:21:17;;;;;;;13.95;6.45;;;;;;;35.54;24.28;98225.72;5064777;28;20417;-76
2021/08/06 09:23:56;;;;;;;14.68;5.95;;;;;;;35.59;24.13;98222.66;5060204;28;20730;-75
2021/08/06 09:26:27;;;;;;;10.73;5.65;;;;;;;35.81;24.05;98220.97;5059068;28;20057;-74
2021/08/06 09:29:03;;;;;;;10.63;6.32;;;;;;;36.07;23.33;98224.75;5068159;28;20028;-75
2021/08/06 09:31:30;;;;;;;11.32;5.70;;;;;;;36.17;23.47;98224.81;5062562;28;20024;-75
2021/08/06 09:34:29;;;;;;;14.18;5.60;;;;;;;36.27;23.38;98231.59;5065591;28;20209;-76
2021/08/06 09:37:21;;;;;;;22.08;7.28;;;;;;;36.15;24.47;98220.88;5059837;28;20060;-75
2021/08/06 09:39:49;;;;;;;25.60;7.78;;;;;;;35.97;24.66;98199.53;5062657;28;20083;-75
2021/08/06 09:42:23;;;;;;;16.00;7.03;;;;;;;36.08;25.05;98215.31;5068554;28;20028;-75
2021/08/06 09:45:15;;;;;;;13.27;6.57;;;;;;;36.02;24.89;98216.84;5066897;28;20471;-76
2021/08/06 09:47:43;;;;;;;18.45;7.97;;;;;;;35.91;25.02;98212.03;5056634;28;20044;-74
2021/08/06 09:50:17;;;;;;;18.20;7.07;;;;;;;35.73;25.47;98222.03;5070821;28;20115;-75
2021/08/06 09:52:46;;;;;;;19.45;7.50;;;;;;;35.16;25.42;98166.47;5061896;28;20029;-73
2021/08/06 09:55:19;;;;;;;18.58;7.15;;;;;;;35.11;25.85;98180.50;5065646;28;20047;-72
2021/08/06 09:57:44;;;;;;;14.90;6.68;;;;;;;34.93;25.76;98166.56;5069759;28;20512;-75
2021/08/06 10:00:16;;;;;;;16.23;9.13;;;;;;;35.02;26.01;98183.53;5058918;28;20027;-75
2021/08/06 10:02:42;;;;;;;14.68;6.57;;;;;;;35.35;25.43;98162.78;5056183;28;20060;-74
2021/08/06 10:05:14;;;;;;;13.95;7.93;;;;;;;35.73;25.30;98164.38;5066185;28;20037;-74
2021/08/06 10:07:45;;;;;;;17.13;6.38;;;;;;;36.11;24.30;98154.13;5062628;28;20036;-74
2021/08/06 10:10:14;;;;;;;16.90;10.18;;;;;;;36.44;24.22;98184.25;5069216;28;20111;-74
2021/08/06 10:12:41;;;;;;;11.73;6.18;;;;;;;36.76;23.83;98183.66;5070837;28;20412;-74
2021/08/06 10:15:06;;;;;;;18.75;6.93;;;;;;;36.74;23.63;98156.53;5070499;28;20115;-74
2021/08/06 10:17:32;;;;;;;15.80;7.90;;;;;;;36.79;23.72;98183.69;5068650;28;20107;-74
2021/08/06 10:19:58;;;;;;;14.65;6.47;;;;;;;36.26;23.84;98147.53;5068669;28;20040;-74
2021/08/06 10:22:24;;;;;;;11.45;6.57;;;;;;;36.12;24.39;98177.69;5070568;28;20104;-76
2021/08/06 10:24:52;;;;;;;14.98;7.22;;;;;;;35.85;24.60;98172.34;5068722;28;20072;-74
2021/08/06 10:27:23;;;;;;;18.90;7.82;;;;;;;35.92;24.91;98186.16;5069930;28;20392;-76
2021/08/06 10:30:06;;;;;;;16.52;8.07;;;;;;;35.90;24.94;98187.69;5069881;28;20067;-73
2021/08/06 10:32:33;;;;;;;14.77;8.30;;;;;;;35.49;25.21;98124.50;5069658;28;20034;-73
2021/08/06 10:35:14;;;;;;;17.67;10.07;;;;;;;35.85;25.24;98175.09;5070676;28;20095;-75
2021/08/06 10:38:01;;;;;;;19.33;7.43;;;;;;;35.79;25.22;98181.28;5069102;28;20111;-75
2021/08/06 10:40:37;;;;;;;14.43;7.32;;;;;;;35.50;25.08;98180.19;5070177;28;20025;-75
2021/08/06 10:43:11;;;;;;;12.02;6.93;;;;;;;35.43;25.93;98185.59;5067509;28;20028;-73
2021/08/06 10:45:45;;;;;;;10.93;6.40;;;;;;;35.30;25.26;98174.84;5058823;28;20059;-74
2021/08/06 10:48:53;;;;;;;10.90;6.80;;;;;;;35.41;25.27;98171.47;5069715;28;20037;-73
2021/08/06 10:51:36;;;;;;;15.10;8.68;;;;;;;34.87;25.58;98098.69;5070400;28;20583;-73
2021/08/06 10:54:02;;;;;;;12.40;7.43;;;;;;;35.38;25.59;98172.22;5069070;28;20119;-75
2021/08/06 10:56:33;;;;;;;15.02;7.45;;;;;;;35.28;25.23;98181.88;5069358;28;20137;-74
2021/08/06 10:59:13;;;;;;;15.80;6.13;;;;;;;35.14;25.43;98182.50;5068906;28;20025;-74
2021/08/06 11:01:50;;;;;;;11.20;5.32;;;;;;;35.02;25.74;98188.25;5070432;28;20424;-74
2021/08/06 11:04:19;;;;;;;9.48;6.72;;;;;;;34.92;25.65;98177.88;5070147;28;20250;-74
2021/08/06 11:06:51;;;;;;;12.23;6.05;;;;;;;34.67;25.88;98177.53;5069887;28;20024;-75
2021/08/06 11:09:26;;;;;;;9.50;6.28;;;;;;;34.51;26.03;98171.44;5070362;28;20028;-75
2021/08/06 11:12:00;;;;;;;11.88;7.70;;;;;;;34.48;26.66;98172.94;5068805;28;20033;-75
2021/08/06 11:14:31;;;;;;;9.25;5.30;;;;;;;34.40;25.98;98201.41;5069840;28;20079;-74
2021/08/06 11:17:06;;;;;;;8.00;5.00;;;;;;;34.30;26.23;98210.22;5069984;28;20420;-74
2021/08/06 11:19:47;;;;;;;12.43;5.72;;;;;;;33.99;26.66;98181.91;5069939;28;20029;-75
2021/08/06 11:22:30;;;;;;;11.15;5.88;;;;;;;34.09;26.69;98218.88;5070241;28;20103;-73
2021/08/06 11:25:01;;;;;;;11.02;5.20;;;;;;;33.92;27.00;98233.03;5070027;28;20055;-76
2021/08/06 11:27:37;;;;;;;14.35;5.70;;;;;;;33.73;27.97;98217.41;5070284;28;20108;-75
2021/08/06 11:30:10;;;;;;;7.88;4.80;;;;;;;33.69;27.39;98206.41;5069419;28;20032;-75
2021/08/06 11:33:08;;;;;;;14.32;5.80;;;;;;;33.62;27.65;98213.69;5068190;28;20016;-73
2021/08/06 11:35:39;;;;;;;12.88;5.35;;;;;;;33.54;28.00;98220.97;5061069;28;20509;-74